createdAt,value
2022-07-27T00:00:01.200Z,2.9
2022-07-27T00:05:01.118Z,3.0
2022-07-27T00:10:01.206Z,2.9
2022-07-27T00:15:01.124Z,3.0
2022-07-27T00:20:01.183Z,2.9
2022-07-27T00:30:01.246Z,3.1
2022-07-27T00:40:01.246Z,3.8
2022-07-27T00:45:01.114Z,4.0
2022-07-27T00:55:01.247Z,3.9
2022-07-27T01:00:01.182Z,3.7
2022-07-27T01:05:01.120Z,3.0
2022-07-27T01:10:01.246Z,2.6
2022-07-27T01:15:01.118Z,2.4
2022-07-27T01:20:12.712Z,2.0
2022-07-27T01:25:01.118Z,1.9
2022-07-27T01:30:01.181Z,1.7
2022-07-27T01:35:01.119Z,1.8
2022-07-27T01:40:01.247Z,1.6
2022-07-27T01:50:01.271Z,2.0
2022-07-27T01:55:01.127Z,1.9
2022-07-27T02:00:01.183Z,2.2
2022-07-27T02:05:01.200Z,2.7
2022-07-27T02:10:06.185Z,3.0
2022-07-27T02:15:05.634Z,2.8
2022-07-27T02:20:01.255Z,3.0
2022-07-27T02:25:01.116Z,2.6
2022-07-27T02:30:01.248Z,2.5
2022-07-27T02:35:01.119Z,2.7
2022-07-27T02:40:01.163Z,2.8
2022-07-27T02:45:01.117Z,2.7
2022-07-27T02:50:06.197Z,3.2
2022-07-27T02:55:02.152Z,3.6
2022-07-27T03:00:01.259Z,3.3
2022-07-27T03:10:01.254Z,3.4
2022-07-27T03:20:01.179Z,3.5
2022-07-27T03:25:01.119Z,2.7
2022-07-27T03:30:01.245Z,2.9
2022-07-27T03:35:01.148Z,3.3
2022-07-27T03:40:01.252Z,3.6
2022-07-27T03:45:01.120Z,3.1
2022-07-27T03:55:01.261Z,3.6
2022-07-27T04:00:01.190Z,3.6
2022-07-27T04:05:01.118Z,3.4
2022-07-27T04:10:01.245Z,3.1
2022-07-27T04:15:01.145Z,3.6
2022-07-27T04:20:01.191Z,3.4
2022-07-27T04:30:01.681Z,3.5
2022-07-27T04:40:01.188Z,3.8
2022-07-27T04:45:01.126Z,3.7
2022-07-27T04:55:01.188Z,3.8
2022-07-27T05:00:01.182Z,3.9
2022-07-27T05:10:01.189Z,3.6
2022-07-27T05:20:01.259Z,3.7
2022-07-27T05:30:01.249Z,3.7
2022-07-27T05:35:01.123Z,3.2
2022-07-27T05:40:01.185Z,3.0
2022-07-27T05:45:01.121Z,3.2
2022-07-27T06:00:01.262Z,3.3
2022-07-27T06:05:01.121Z,3.5
2022-07-27T06:10:01.183Z,3.3
2022-07-27T06:15:01.119Z,3.0
2022-07-27T06:20:01.186Z,2.9
2022-07-27T06:30:01.250Z,2.9
2022-07-27T06:45:01.248Z,3.1
2022-07-27T06:55:01.247Z,3.5
2022-07-27T07:00:01.185Z,3.5
2022-07-27T07:05:06.126Z,3.4
2022-07-27T07:20:01.246Z,3.4
2022-07-27T07:25:02.995Z,3.2
2022-07-27T07:30:01.180Z,3.3
2022-07-27T07:35:01.123Z,3.2
2022-07-27T07:40:18.593Z,3.3
2022-07-27T07:50:01.200Z,3.4
2022-07-27T07:55:01.128Z,3.2
2022-07-27T08:00:01.189Z,3.0
2022-07-27T08:05:01.180Z,3.4
2022-07-27T08:10:01.183Z,3.8
2022-07-27T08:15:01.120Z,3.9
2022-07-27T08:20:01.243Z,3.7
2022-07-27T08:25:01.126Z,3.9
2022-07-27T08:30:01.683Z,3.7
2022-07-27T08:35:01.121Z,3.1
2022-07-27T09:05:01.289Z,4.2
2022-07-27T09:10:01.238Z,2.3
2022-07-27T09:15:01.094Z,2.5
2022-07-27T09:20:01.161Z,2.8
2022-07-27T09:25:01.094Z,2.7
2022-07-27T09:30:01.166Z,2.5
2022-07-27T09:35:01.094Z,2.4
2022-07-27T10:00:01.011Z,1.5
2022-07-27T10:05:01.029Z,1.9
2022-07-27T10:10:01.060Z,2.3
2022-07-27T10:15:00.931Z,2.0
2022-07-27T10:20:01.048Z,2.4
2022-07-27T10:25:00.925Z,2.5
2022-07-27T10:30:00.995Z,2.9
2022-07-27T10:35:00.937Z,2.8
2022-07-27T10:40:01.054Z,3.0
2022-07-27T10:45:00.928Z,3.2
2022-07-27T10:55:01.056Z,2.8
2022-07-27T11:00:10.968Z,3.2
2022-07-27T11:15:01.044Z,3.6
2022-07-27T11:20:01.080Z,3.8
2022-07-27T11:25:01.050Z,2.7
2022-07-27T11:30:00.981Z,2.6
2022-07-27T11:35:00.916Z,2.7
2022-07-27T11:40:03.007Z,2.5
2022-07-27T11:45:00.899Z,3.0
2022-07-27T11:55:00.987Z,3.1
2022-07-27T12:00:01.969Z,2.6
2022-07-27T12:05:03.125Z,3.1
2022-07-27T12:10:00.981Z,2.7
2022-07-27T12:15:00.917Z,2.7
2022-07-27T12:20:01.995Z,3.0
2022-07-27T12:25:00.918Z,3.6
2022-07-27T12:30:00.995Z,2.7
2022-07-27T12:35:00.921Z,2.6
2022-07-27T12:40:00.988Z,2.8
2022-07-27T12:45:00.929Z,2.8
2022-07-27T12:50:01.001Z,2.6
2022-07-27T12:55:00.976Z,2.7
2022-07-27T13:00:01.051Z,2.4
2022-07-27T13:05:00.926Z,2.2
2022-07-27T13:10:02.497Z,2.1
2022-07-27T13:15:00.946Z,1.9
2022-07-27T13:20:00.990Z,1.7
2022-07-27T13:25:15.714Z,1.6
2022-07-27T13:30:00.996Z,2.4
2022-07-27T13:35:00.936Z,2.3
2022-07-27T13:40:01.059Z,2.1
2022-07-27T13:45:08.430Z,2.6
2022-07-27T13:50:01.021Z,2.5
2022-07-27T13:55:00.938Z,1.9
2022-07-27T14:00:01.000Z,1.6
2022-07-27T14:05:00.932Z,2.0
2022-07-27T14:10:01.076Z,1.4
2022-07-27T14:15:00.936Z,1.7
2022-07-27T14:20:01.135Z,1.8
2022-07-27T14:25:00.934Z,1.7
2022-07-27T14:30:01.063Z,1.6
2022-07-27T14:35:00.934Z,1.8
2022-07-27T14:40:01.086Z,2.0
2022-07-27T14:45:00.946Z,2.1
2022-07-27T14:50:01.135Z,2.8
2022-07-27T14:55:00.962Z,2.4
2022-07-27T15:00:01.065Z,2.7
2022-07-27T15:05:00.934Z,2.0
2022-07-27T15:10:01.096Z,2.1
2022-07-27T15:15:00.935Z,1.2
2022-07-27T15:20:01.107Z,1.4
2022-07-27T15:25:00.978Z,1.9
2022-07-27T15:30:01.008Z,2.7
2022-07-27T15:35:00.933Z,2.6
2022-07-27T15:40:01.031Z,3.2
2022-07-27T15:45:00.940Z,3.2
2022-07-27T15:50:01.111Z,3.0
2022-07-27T15:55:00.962Z,2.9
2022-07-27T16:00:01.011Z,2.5
2022-07-27T16:10:01.069Z,2.3
2022-07-27T16:15:00.947Z,2.1
2022-07-27T16:20:01.019Z,1.7
2022-07-27T16:25:00.944Z,2.1
2022-07-27T16:30:01.026Z,1.8
2022-07-27T16:35:00.945Z,2.1
2022-07-27T16:40:01.767Z,2.2
2022-07-27T16:45:00.946Z,2.3
2022-07-27T16:50:02.113Z,2.4
2022-07-27T16:55:00.972Z,2.2
2022-07-27T17:00:01.010Z,2.4
2022-07-27T17:05:00.949Z,2.3
2022-07-27T17:15:01.140Z,2.4
2022-07-27T17:25:01.090Z,2.5
2022-07-27T17:30:01.009Z,2.5
2022-07-27T17:35:00.941Z,2.3
2022-07-27T17:45:01.004Z,2.7
2022-07-27T17:50:01.077Z,2.8
2022-07-27T17:55:00.943Z,2.6
2022-07-27T18:00:01.031Z,3.0
2022-07-27T18:05:02.038Z,2.9
2022-07-27T18:15:01.014Z,2.9
2022-07-27T18:20:01.078Z,2.6
2022-07-27T18:30:01.016Z,2.8
2022-07-27T18:35:01.012Z,2.9
2022-07-27T18:40:01.143Z,2.7
2022-07-27T18:45:00.944Z,3.1
2022-07-27T18:50:01.013Z,3.0
2022-07-27T18:55:01.046Z,2.9
2022-07-27T19:00:01.086Z,2.6
2022-07-27T19:10:01.176Z,2.4
2022-07-27T19:15:01.053Z,2.6
2022-07-27T19:25:01.032Z,2.9
2022-07-27T19:30:01.084Z,3.1
2022-07-27T19:35:00.963Z,3.4
2022-07-27T19:40:14.713Z,3.5
2022-07-27T19:45:00.937Z,4.1
2022-07-27T19:50:01.071Z,4.2
2022-07-27T20:00:01.028Z,3.7
2022-07-27T20:05:00.969Z,3.6
2022-07-27T20:10:01.088Z,3.4
2022-07-27T20:15:00.962Z,2.9
2022-07-27T20:30:01.025Z,2.7
2022-07-27T20:35:00.968Z,2.3
2022-07-27T20:40:01.090Z,2.6
2022-07-27T20:45:00.958Z,2.6
2022-07-27T20:50:01.090Z,3.0
2022-07-27T21:00:01.023Z,3.1
2022-07-27T21:05:00.965Z,2.9
2022-07-27T21:10:01.021Z,2.7
2022-07-27T21:15:00.958Z,2.6
2022-07-27T21:25:01.030Z,2.5
2022-07-27T21:30:01.027Z,2.9
2022-07-27T21:35:00.968Z,3.1
2022-07-27T21:45:01.029Z,3.4
2022-07-27T21:50:06.098Z,3.1
2022-07-27T21:55:00.964Z,3.0
2022-07-27T22:00:01.104Z,3.0
2022-07-27T22:05:01.031Z,2.6
2022-07-27T22:15:01.097Z,3.1
2022-07-27T22:20:01.041Z,3.3
2022-07-27T22:25:00.968Z,3.4
2022-07-27T22:30:01.108Z,3.5
2022-07-27T22:40:01.030Z,3.3
2022-07-27T22:45:00.972Z,3.3
2022-07-27T22:50:01.041Z,3.4
2022-07-27T22:55:00.971Z,3.6
2022-07-27T23:00:01.822Z,3.9
2022-07-27T23:05:01.057Z,4.0
2022-07-27T23:15:06.043Z,3.5
2022-07-27T23:20:01.171Z,4.0
2022-07-27T23:25:01.006Z,3.8
2022-07-27T23:30:01.040Z,4.0
2022-07-27T23:35:06.044Z,3.8
2022-07-27T23:40:01.105Z,4.6
2022-07-27T23:45:00.974Z,3.9
2022-07-27T23:50:01.044Z,3.8
2022-07-27T23:55:00.976Z,3.6
